Time;durP1;ratioP1;P1;durP2;ratioP2;P2;SDS_P1;SDS_P2;PMS_P1;PMS_P2;Temp;Humidity;BMP_temperature;BMP_pressure;BME280_temperature;BME280_humidity;BME280_pressure;Samples;Min_cycle;Max_cycle;Signal;HPM_P1;HPM_P2
2024/01/09 00:03:17;;;;;;;;;;;-1.90;99.90;;;;;;8421609;28;20105;-75
2024/01/09 00:07:19;;;;;;;;;;;-1.90;99.90;;;;;;8441240;28;19932;-75
2024/01/09 00:11:21;;;;;;;;;;;-2.00;99.90;;;;;;8441759;28;19969;-75
2024/01/09 00:15:23;;;;;;;;;;;-2.00;99.90;;;;;;8437521;28;20283;-75
2024/01/09 00:19:25;;;;;;;;;;;-2.00;99.90;;;;;;8431319;28;20295;-75
2024/01/09 00:23:26;;;;;;;;;;;-2.00;99.90;;;;;;8412501;28;20409;-75
2024/01/09 00:27:28;;;;;;;;;;;-2.00;99.90;;;;;;8411763;28;19936;-75
2024/01/09 00:31:30;;;;;;;;;;;-2.00;99.90;;;;;;8414850;28;19924;-75
2024/01/09 00:35:31;;;;;;;;;;;-2.00;99.90;;;;;;8419836;28;19925;-75
2024/01/09 00:39:33;;;;;;;;;;;-2.10;99.90;;;;;;8418639;28;19979;-75
2024/01/09 00:43:35;;;;;;;;;;;-2.10;99.90;;;;;;8410285;28;19928;-75
2024/01/09 00:47:36;;;;;;;;;;;-2.10;99.90;;;;;;8419223;28;20387;-75
2024/01/09 00:51:38;;;;;;;;;;;-2.10;99.90;;;;;;8416981;28;19928;-75
2024/01/09 00:55:40;;;;;;;;;;;-2.10;99.90;;;;;;8412304;28;20923;-75
2024/01/09 00:59:42;;;;;;;;;;;-2.20;99.90;;;;;;8438316;28;19931;-75
2024/01/09 01:03:43;;;;;;;;;;;-2.20;99.90;;;;;;8424015;28;20444;-75
2024/01/09 01:07:45;;;;;;;;;;;-2.20;99.90;;;;;;8411746;28;20294;-75
2024/01/09 01:11:47;;;;;;;;;;;-2.20;99.90;;;;;;8407355;28;20325;-75
2024/01/09 01:15:49;;;;;;;;;;;-2.20;99.90;;;;;;8437423;28;19927;-75
2024/01/09 01:19:50;;;;;;;;;;;-2.20;99.90;;;;;;8431781;28;20622;-75
2024/01/09 01:23:52;;;;;;;;;;;-2.30;99.90;;;;;;8420253;28;20213;-75
2024/01/09 01:27:54;;;;;;;;;;;-2.30;99.90;;;;;;8431848;28;19931;-75
2024/01/09 01:31:56;;;;;;;;;;;-2.30;99.90;;;;;;8435029;28;19978;-75
2024/01/09 01:35:57;;;;;;;;;;;-2.30;99.90;;;;;;8427158;28;19931;-75
2024/01/09 01:39:59;;;;;;;;;;;-2.30;99.90;;;;;;8411146;28;20334;-75
2024/01/09 01:44:00;;;;;;;;;;;-2.30;99.90;;;;;;8435324;28;19924;-75
2024/01/09 01:48:03;;;;;;;;;;;-2.30;99.90;;;;;;8419225;28;20333;-75
2024/01/09 01:52:05;;;;;;;;;;;-2.30;99.90;;;;;;8423673;28;19924;-75
2024/01/09 01:56:07;;;;;;;;;;;-2.30;99.90;;;;;;8420327;28;19931;-75
2024/01/09 02:00:09;;;;;;;;;;;-2.30;99.90;;;;;;8439325;28;19959;-75
2024/01/09 02:04:11;;;;;;;;;;;-2.30;99.90;;;;;;8434306;28;19924;-75
2024/01/09 02:08:13;;;;;;;;;;;-2.40;99.90;;;;;;8433765;28;19924;-75
2024/01/09 02:12:15;;;;;;;;;;;-2.40;99.90;;;;;;8443411;28;20367;-75
2024/01/09 02:16:17;;;;;;;;;;;-2.40;99.90;;;;;;8437790;28;19923;-75
2024/01/09 02:20:23;;;;;;;;;;;-2.40;99.90;;;;;;8416696;28;20021;-75
2024/01/09 02:24:24;;;;;;;;;;;-2.40;99.90;;;;;;8434447;28;20299;-75
2024/01/09 02:28:46;;;;;;;;;;;-2.40;99.90;;;;;;8438379;28;19927;-75
2024/01/09 02:32:50;;;;;;;;;;;-2.40;99.90;;;;;;8435868;28;19924;-75
2024/01/09 02:36:52;;;;;;;;;;;-2.50;99.90;;;;;;8424571;28;19924;-75
2024/01/09 02:40:53;;;;;;;;;;;-2.50;99.90;;;;;;8424198;28;20288;-75
2024/01/09 02:44:55;;;;;;;;;;;-2.50;99.90;;;;;;8437619;28;19951;-75
2024/01/09 02:48:57;;;;;;;;;;;-2.50;99.90;;;;;;8440535;28;20364;-75
2024/01/09 02:52:59;;;;;;;;;;;-2.50;99.90;;;;;;8444337;28;20358;-75
2024/01/09 02:57:00;;;;;;;;;;;-2.50;99.90;;;;;;8434998;28;19924;-75
2024/01/09 03:01:02;;;;;;;;;;;-2.50;99.90;;;;;;8436730;28;19977;-75
2024/01/09 03:05:07;;;;;;;;;;;-2.50;99.90;;;;;;8434575;28;19927;-75
2024/01/09 03:09:11;;;;;;;;;;;-2.50;99.90;;;;;;8424120;28;19928;-76
2024/01/09 03:13:13;;;;;;;;;;;-2.60;99.90;;;;;;8426514;28;19931;-75
2024/01/09 03:17:14;;;;;;;;;;;-2.60;99.90;;;;;;8440764;28;19931;-75
2024/01/09 03:21:16;;;;;;;;;;;-2.60;99.90;;;;;;8437872;28;19924;-75
2024/01/09 03:25:18;;;;;;;;;;;-2.60;99.90;;;;;;8435692;28;20321;-75
2024/01/09 03:29:20;;;;;;;;;;;-2.60;99.90;;;;;;8435806;28;19928;-75
2024/01/09 03:33:21;;;;;;;;;;;-2.60;99.90;;;;;;8422449;28;20345;-75
2024/01/09 03:37:23;;;;;;;;;;;-2.60;99.90;;;;;;8415223;28;19924;-75
2024/01/09 03:41:25;;;;;;;;;;;-2.60;99.90;;;;;;8439673;28;19967;-75
2024/01/09 03:45:27;;;;;;;;;;;-2.60;99.90;;;;;;8439066;28;20387;-75
2024/01/09 03:49:28;;;;;;;;;;;-2.60;99.90;;;;;;8436459;28;20011;-75
2024/01/09 03:53:30;;;;;;;;;;;-2.60;99.90;;;;;;8435056;28;19928;-75
2024/01/09 03:57:31;;;;;;;;;;;-2.60;99.90;;;;;;8430946;28;19931;-75
2024/01/09 04:01:33;;;;;;;;;;;-2.60;99.90;;;;;;8425834;28;20264;-76
2024/01/09 04:05:35;;;;;;;;;;;-2.60;99.90;;;;;;8425253;28;19924;-75
2024/01/09 04:09:36;;;;;;;;;;;-2.60;99.90;;;;;;8443300;28;19931;-75
2024/01/09 04:13:38;;;;;;;;;;;-2.60;99.90;;;;;;8436943;28;19932;-75
2024/01/09 04:17:40;;;;;;;;;;;-2.70;99.90;;;;;;8441690;28;19925;-75
2024/01/09 04:21:42;;;;;;;;;;;-2.70;99.90;;;;;;8434926;28;19924;-75
2024/01/09 04:25:44;;;;;;;;;;;-2.70;99.90;;;;;;8430827;28;20384;-75
2024/01/09 04:29:46;;;;;;;;;;;-2.70;99.90;;;;;;8415673;28;19932;-75
2024/01/09 04:33:48;;;;;;;;;;;-2.80;99.90;;;;;;8428840;28;20045;-75
2024/01/09 04:37:50;;;;;;;;;;;-2.80;99.90;;;;;;8439791;28;19928;-75
2024/01/09 04:41:51;;;;;;;;;;;-2.80;99.90;;;;;;8420535;28;19936;-75
2024/01/09 04:45:53;;;;;;;;;;;-2.80;99.90;;;;;;8441798;28;20276;-75
2024/01/09 04:49:55;;;;;;;;;;;-2.80;99.90;;;;;;8438383;28;19924;-75
2024/01/09 04:53:57;;;;;;;;;;;-2.90;99.90;;;;;;8436907;28;20031;-75
2024/01/09 04:57:58;;;;;;;;;;;-2.90;99.90;;;;;;8443339;28;19928;-75
2024/01/09 05:02:01;;;;;;;;;;;-2.90;99.90;;;;;;8438633;28;19954;-75
2024/01/09 05:06:03;;;;;;;;;;;-2.90;99.90;;;;;;8414394;28;19966;-75
2024/01/09 05:10:05;;;;;;;;;;;-3.00;99.90;;;;;;8417533;28;19925;-74
2024/01/09 05:14:07;;;;;;;;;;;-3.00;99.90;;;;;;8434836;28;19931;-74
2024/01/09 05:18:09;;;;;;;;;;;-3.00;99.90;;;;;;8445539;28;19953;-75
2024/01/09 05:22:11;;;;;;;;;;;-3.00;99.90;;;;;;8436116;28;19928;-75
2024/01/09 05:26:12;;;;;;;;;;;-3.00;99.90;;;;;;8432711;28;19958;-74
2024/01/09 05:30:14;;;;;;;;;;;-3.00;99.90;;;;;;8436277;28;19950;-74
2024/01/09 05:34:16;;;;;;;;;;;-3.00;99.90;;;;;;8433963;28;19969;-75
2024/01/09 05:38:18;;;;;;;;;;;-3.10;99.90;;;;;;8442974;28;19965;-75
2024/01/09 05:42:22;;;;;;;;;;;-3.10;99.90;;;;;;8433823;28;20342;-75
2024/01/09 05:46:25;;;;;;;;;;;-3.10;99.90;;;;;;8419884;28;20381;-75
2024/01/09 05:50:27;;;;;;;;;;;-3.10;99.90;;;;;;8450951;28;19933;-74
2024/01/09 05:54:28;;;;;;;;;;;-3.10;99.90;;;;;;8447458;28;19934;-75
2024/01/09 05:58:30;;;;;;;;;;;-3.10;99.90;;;;;;8428996;28;19928;-74
2024/01/09 06:07:42;;;;;;;;;;;-3.20;99.90;;;;;;8448540;28;19922;-75
2024/01/09 06:11:43;;;;;;;;;;;-3.20;99.90;;;;;;8440892;28;19970;-74
2024/01/09 06:15:45;;;;;;;;;;;-3.20;99.90;;;;;;8436842;28;20268;-75
2024/01/09 06:19:47;;;;;;;;;;;-3.20;99.90;;;;;;8443778;28;19924;-74
2024/01/09 06:23:49;;;;;;;;;;;-3.20;99.90;;;;;;8426523;28;19924;-74
2024/01/09 06:27:50;;;;;;;;;;;-3.20;99.90;;;;;;8439733;28;19931;-74
2024/01/09 06:31:52;;;;;;;;;;;-3.20;99.90;;;;;;8439021;28;19928;-74
2024/01/09 06:35:53;;;;;;;;;;;-3.20;99.90;;;;;;8437384;28;19924;-75
2024/01/09 06:39:55;;;;;;;;;;;-3.30;99.90;;;;;;8441240;28;19951;-75
2024/01/09 06:43:57;;;;;;;;;;;-3.30;99.90;;;;;;8426687;28;19942;-75
2024/01/09 06:47:59;;;;;;;;;;;-3.30;99.90;;;;;;8418172;28;19930;-74
2024/01/09 06:52:00;;;;;;;;;;;-3.30;99.90;;;;;;8439852;28;20337;-74
2024/01/09 06:56:03;;;;;;;;;;;-3.40;99.90;;;;;;8447861;28;19969;-74
2024/01/09 07:00:06;;;;;;;;;;;-3.40;99.90;;;;;;8445219;28;19977;-75
2024/01/09 07:04:08;;;;;;;;;;;-3.40;99.90;;;;;;8450951;28;19928;-75
2024/01/09 07:08:10;;;;;;;;;;;-3.40;99.90;;;;;;8440694;28;20421;-75
2024/01/09 07:12:13;;;;;;;;;;;-3.50;99.90;;;;;;8415932;28;19947;-74
2024/01/09 07:16:14;;;;;;;;;;;-3.50;99.90;;;;;;8415061;28;19927;-74
2024/01/09 07:20:18;;;;;;;;;;;-3.50;99.90;;;;;;8431820;28;21476;-74
2024/01/09 07:24:20;;;;;;;;;;;-3.50;99.90;;;;;;8413321;28;19964;-74
2024/01/09 07:28:22;;;;;;;;;;;-3.50;99.90;;;;;;8437684;28;19940;-74
2024/01/09 07:32:23;;;;;;;;;;;-3.50;99.90;;;;;;8433329;28;19931;-74
2024/01/09 07:36:25;;;;;;;;;;;-3.50;99.90;;;;;;8442970;28;19931;-74
2024/01/09 07:40:27;;;;;;;;;;;-3.50;99.90;;;;;;8429499;28;19970;-74
2024/01/09 07:44:28;;;;;;;;;;;-3.50;99.90;;;;;;8428513;28;19931;-75
2024/01/09 07:48:30;;;;;;;;;;;-3.60;99.90;;;;;;8435629;28;19928;-74
2024/01/09 07:52:32;;;;;;;;;;;-3.60;99.90;;;;;;8436134;28;19924;-75
2024/01/09 07:56:34;;;;;;;;;;;-3.60;99.90;;;;;;8437995;28;19939;-74
2024/01/09 08:00:35;;;;;;;;;;;-3.60;99.90;;;;;;8434720;28;19977;-74
2024/01/09 08:04:39;;;;;;;;;;;-3.60;99.90;;;;;;8434625;28;19945;-75
2024/01/09 08:08:41;;;;;;;;;;;-3.60;99.90;;;;;;8418990;28;19953;-74
2024/01/09 08:12:42;;;;;;;;;;;-3.50;99.90;;;;;;8438010;28;19927;-74
2024/01/09 08:16:44;;;;;;;;;;;-3.50;99.90;;;;;;8444565;28;19928;-73
2024/01/09 08:20:46;;;;;;;;;;;-3.50;99.90;;;;;;8429071;28;19924;-74
2024/01/09 08:24:47;;;;;;;;;;;-3.40;99.90;;;;;;8444202;28;20371;-74
2024/01/09 08:28:49;;;;;;;;;;;-3.30;99.90;;;;;;8429322;28;19932;-74
2024/01/09 08:32:51;;;;;;;;;;;-3.30;99.90;;;;;;8420755;28;19924;-75
2024/01/09 08:36:53;;;;;;;;;;;-3.30;99.90;;;;;;8433864;28;19923;-74
2024/01/09 08:40:56;;;;;;;;;;;-3.30;99.90;;;;;;8426962;28;19924;-74
2024/01/09 08:44:57;;;;;;;;;;;-3.20;99.90;;;;;;8434667;28;20309;-74
2024/01/09 08:49:00;;;;;;;;;;;-3.20;99.90;;;;;;8445593;28;19930;-74
2024/01/09 08:53:02;;;;;;;;;;;-3.20;99.90;;;;;;8436209;28;19993;-74
2024/01/09 08:57:05;;;;;;;;;;;-3.10;99.90;;;;;;8436412;28;19940;-74
2024/01/09 09:01:07;;;;;;;;;;;-3.00;99.90;;;;;;8416347;28;20287;-74
2024/01/09 09:05:08;;;;;;;;;;;-2.90;99.90;;;;;;8427978;28;19970;-74
2024/01/09 09:09:10;;;;;;;;;;;-2.70;99.90;;;;;;8443470;28;19931;-73
2024/01/09 09:13:12;;;;;;;;;;;-2.40;99.90;;;;;;8420691;28;19963;-74
2024/01/09 09:17:16;;;;;;;;;;;-2.00;99.90;;;;;;8434323;28;19928;-74
2024/01/09 09:21:17;;;;;;;;;;;-1.60;99.90;;;;;;8441311;28;19931;-74
2024/01/09 09:25:20;;;;;;;;;;;-1.20;99.90;;;;;;8443086;28;20398;-74
2024/01/09 09:29:21;;;;;;;;;;;-0.90;99.90;;;;;;8447864;28;19924;-74
2024/01/09 09:33:33;;;;;;;;;;;-0.60;99.90;;;;;;8417049;28;19968;-75
2024/01/09 09:37:35;;;;;;;;;;;-0.40;99.90;;;;;;8445654;28;19924;-75
2024/01/09 09:41:38;;;;;;;;;;;-0.30;99.90;;;;;;8442012;28;19923;-75
2024/01/09 09:45:42;;;;;;;;;;;-0.20;99.90;;;;;;8419683;28;19931;-75
2024/01/09 09:49:45;;;;;;;;;;;-0.30;99.90;;;;;;8426061;28;20525;-74
2024/01/09 09:53:48;;;;;;;;;;;-0.30;99.90;;;;;;8435538;28;19967;-75
2024/01/09 09:57:49;;;;;;;;;;;-0.30;99.90;;;;;;8431972;28;19938;-74
2024/01/09 10:01:52;;;;;;;;;;;-0.40;99.90;;;;;;8426971;28;20441;-75
2024/01/09 10:05:54;;;;;;;;;;;-0.40;99.90;;;;;;8430804;28;19928;-75
2024/01/09 10:09:57;;;;;;;;;;;-0.30;99.90;;;;;;8413837;28;19969;-74
2024/01/09 10:13:59;;;;;;;;;;;-0.10;99.90;;;;;;8420410;28;20359;-75
2024/01/09 10:18:01;;;;;;;;;;;0.10;99.90;;;;;;8428469;28;19924;-74
2024/01/09 10:22:03;;;;;;;;;;;0.20;99.90;;;;;;8414613;28;19931;-75
2024/01/09 10:26:09;;;;;;;;;;;0.30;99.90;;;;;;8437423;28;19947;-74
2024/01/09 10:30:12;;;;;;;;;;;0.30;99.90;;;;;;8437489;28;19935;-75
2024/01/09 10:34:14;;;;;;;;;;;0.50;99.90;;;;;;8431484;28;19930;-75
2024/01/09 10:38:22;;;;;;;;;;;0.70;99.90;;;;;;8423064;28;19930;-74
2024/01/09 10:42:24;;;;;;;;;;;0.70;99.90;;;;;;8431571;28;19931;-75
2024/01/09 10:46:27;;;;;;;;;;;0.80;99.90;;;;;;8427350;28;19923;-74
2024/01/09 10:50:28;;;;;;;;;;;1.00;99.90;;;;;;8445721;28;19928;-75
2024/01/09 10:54:32;;;;;;;;;;;1.40;99.90;;;;;;8445448;28;19931;-75
2024/01/09 10:58:34;;;;;;;;;;;1.50;99.90;;;;;;8429786;28;19924;-75
2024/01/09 11:02:36;;;;;;;;;;;1.90;99.90;;;;;;8418838;28;19924;-75
2024/01/09 11:06:39;;;;;;;;;;;2.70;99.90;;;;;;8424927;28;19924;-75
2024/01/09 11:10:45;;;;;;;;;;;3.50;99.90;;;;;;8430102;28;19928;-75
2024/01/09 11:14:49;;;;;;;;;;;4.20;99.90;;;;;;8441345;28;20372;-75
2024/01/09 11:18:52;;;;;;;;;;;4.80;99.90;;;;;;8429823;28;20317;-75
2024/01/09 11:22:54;;;;;;;;;;;5.10;99.90;;;;;;8415679;28;20355;-75
2024/01/09 11:27:09;;;;;;;;;;;5.60;99.90;;;;;;8439875;28;19923;-75
2024/01/09 11:31:20;;;;;;;;;;;6.00;99.90;;;;;;8442390;28;20268;-75
2024/01/09 11:35:21;;;;;;;;;;;6.20;99.90;;;;;;8446475;28;20366;-75
2024/01/09 11:39:23;;;;;;;;;;;6.70;99.90;;;;;;8444132;28;19924;-75
2024/01/09 11:43:27;;;;;;;;;;;7.00;99.90;;;;;;8439741;28;19924;-74
2024/01/09 11:47:29;;;;;;;;;;;7.20;99.90;;;;;;8450624;28;19928;-74
2024/01/09 11:51:31;;;;;;;;;;;7.30;99.90;;;;;;8442276;28;19959;-76
2024/01/09 11:55:33;;;;;;;;;;;7.50;99.90;;;;;;8439386;28;20304;-75
2024/01/09 11:59:35;;;;;;;;;;;7.80;99.90;;;;;;8436422;28;20393;-73
2024/01/09 12:03:37;;;;;;;;;;;8.20;99.90;;;;;;8423702;28;19931;-73
2024/01/09 12:07:40;;;;;;;;;;;8.40;99.90;;;;;;8430505;28;20373;-73
2024/01/09 12:11:41;;;;;;;;;;;8.20;99.90;;;;;;8421342;28;19957;-74
2024/01/09 12:15:43;;;;;;;;;;;7.90;99.90;;;;;;8441264;28;20371;-73
2024/01/09 12:19:45;;;;;;;;;;;7.50;99.90;;;;;;8429736;28;20276;-74
2024/01/09 12:23:46;;;;;;;;;;;7.30;99.90;;;;;;8418697;28;20436;-73
2024/01/09 12:28:04;;;;;;;;;;;7.30;99.90;;;;;;8432714;28;20267;-73
2024/01/09 12:32:06;;;;;;;;;;;7.50;99.90;;;;;;8441188;28;19928;-73
2024/01/09 12:36:08;;;;;;;;;;;7.60;99.90;;;;;;8419588;28;19940;-73
2024/01/09 12:40:15;;;;;;;;;;;7.90;99.90;;;;;;8437619;28;19924;-73
2024/01/09 12:44:17;;;;;;;;;;;8.00;99.90;;;;;;8442160;28;19963;-73
2024/01/09 12:48:19;;;;;;;;;;;7.80;99.90;;;;;;8430820;28;20402;-73
2024/01/09 12:52:21;;;;;;;;;;;7.50;99.90;;;;;;8437579;28;19974;-73
2024/01/09 12:56:23;;;;;;;;;;;7.10;99.90;;;;;;8445440;28;20317;-73
2024/01/09 13:00:25;;;;;;;;;;;7.00;99.90;;;;;;8442631;28;19976;-73
2024/01/09 13:04:27;;;;;;;;;;;7.40;99.90;;;;;;8449964;28;19927;-73
2024/01/09 13:08:29;;;;;;;;;;;7.70;99.90;;;;;;8433579;28;19928;-73
2024/01/09 13:12:30;;;;;;;;;;;7.60;99.90;;;;;;8442837;28;20379;-74
2024/01/09 13:16:32;;;;;;;;;;;7.50;99.90;;;;;;8437521;28;19924;-74
2024/01/09 13:20:34;;;;;;;;;;;7.40;99.90;;;;;;8447036;28;19934;-73
2024/01/09 13:24:36;;;;;;;;;;;7.30;99.90;;;;;;8437914;28;19931;-74
2024/01/09 13:28:37;;;;;;;;;;;7.50;99.90;;;;;;8418782;28;19924;-74
2024/01/09 13:33:00;;;;;;;;;;;7.10;99.90;;;;;;8427733;28;19924;-74
2024/01/09 13:37:02;;;;;;;;;;;6.20;99.90;;;;;;8443359;28;19931;-74
2024/01/09 13:41:04;;;;;;;;;;;5.50;99.90;;;;;;8438251;28;19975;-74
2024/01/09 13:45:06;;;;;;;;;;;4.80;99.90;;;;;;8431867;28;19976;-74
2024/01/09 13:49:08;;;;;;;;;;;4.30;99.90;;;;;;8432632;28;19931;-75
2024/01/09 13:53:10;;;;;;;;;;;3.80;99.90;;;;;;8431974;28;20448;-75
2024/01/09 13:57:13;;;;;;;;;;;3.40;99.90;;;;;;8431698;28;19928;-75
2024/01/09 14:01:15;;;;;;;;;;;3.20;99.90;;;;;;8442520;28;20437;-75
2024/01/09 14:05:24;;;;;;;;;;;3.00;99.90;;;;;;8448551;28;19932;-75
2024/01/09 14:09:26;;;;;;;;;;;2.90;99.90;;;;;;8447632;28;19928;-75
2024/01/09 14:13:28;;;;;;;;;;;2.80;99.90;;;;;;8438882;28;19939;-75
2024/01/09 14:17:30;;;;;;;;;;;2.80;99.90;;;;;;8428149;28;20012;-75
2024/01/09 14:21:32;;;;;;;;;;;2.70;99.90;;;;;;8437615;28;20433;-75
2024/01/09 14:25:34;;;;;;;;;;;2.70;99.90;;;;;;8440338;28;19924;-75
2024/01/09 14:29:37;;;;;;;;;;;2.70;99.90;;;;;;8437983;28;19977;-76
2024/01/09 14:33:39;;;;;;;;;;;2.70;99.90;;;;;;8420757;28;19928;-75
2024/01/09 14:37:41;;;;;;;;;;;2.70;99.90;;;;;;8443986;28;20036;-75
2024/01/09 14:41:43;;;;;;;;;;;2.70;99.90;;;;;;8439702;28;19969;-75
2024/01/09 14:45:45;;;;;;;;;;;2.60;99.90;;;;;;8411499;28;20288;-76
2024/01/09 14:49:47;;;;;;;;;;;2.60;99.90;;;;;;8425015;28;19931;-75
2024/01/09 14:53:48;;;;;;;;;;;2.50;99.90;;;;;;8443572;28;20016;-75
2024/01/09 14:57:50;;;;;;;;;;;2.60;99.90;;;;;;8420245;28;19937;-75
2024/01/09 15:01:52;;;;;;;;;;;3.10;99.90;;;;;;8429376;28;19969;-75
2024/01/09 15:05:54;;;;;;;;;;;3.90;99.90;;;;;;8428279;28;19936;-75
2024/01/09 15:09:56;;;;;;;;;;;4.60;99.90;;;;;;8443593;28;19984;-75
2024/01/09 15:13:58;;;;;;;;;;;5.20;99.90;;;;;;8442862;28;19931;-76
2024/01/09 15:17:59;;;;;;;;;;;5.50;99.90;;;;;;8442270;28;20007;-75
2024/01/09 15:22:01;;;;;;;;;;;5.60;99.90;;;;;;8435841;28;19931;-75
2024/01/09 15:26:03;;;;;;;;;;;5.50;99.90;;;;;;8435056;28;20383;-75
2024/01/09 15:30:05;;;;;;;;;;;5.40;99.90;;;;;;8417515;28;19963;-75
2024/01/09 15:34:07;;;;;;;;;;;5.40;99.90;;;;;;8433340;28;19924;-75
2024/01/09 15:38:10;;;;;;;;;;;5.00;99.90;;;;;;8446265;28;19931;-75
2024/01/09 15:42:12;;;;;;;;;;;4.60;99.90;;;;;;8421401;28;19930;-75
2024/01/09 15:46:21;;;;;;;;;;;3.90;99.90;;;;;;8419631;28;19928;-75
2024/01/09 15:50:23;;;;;;;;;;;3.10;99.90;;;;;;8425123;28;19924;-75
2024/01/09 15:54:27;;;;;;;;;;;2.40;99.90;;;;;;8429339;28;20394;-75
2024/01/09 15:58:28;;;;;;;;;;;1.90;99.90;;;;;;8428815;28;20363;-75
2024/01/09 16:02:30;;;;;;;;;;;1.50;99.90;;;;;;8433650;28;19923;-75
2024/01/09 16:06:32;;;;;;;;;;;1.20;99.90;;;;;;8432920;28;19924;-75
2024/01/09 16:10:34;;;;;;;;;;;1.10;99.90;;;;;;8428809;28;19994;-75
2024/01/09 16:14:39;;;;;;;;;;;0.90;99.90;;;;;;8425884;28;20331;-75
2024/01/09 16:18:40;;;;;;;;;;;0.80;99.90;;;;;;8424618;28;19932;-75
2024/01/09 16:22:42;;;;;;;;;;;0.70;99.90;;;;;;8425092;28;20449;-75
2024/01/09 16:26:44;;;;;;;;;;;0.60;99.90;;;;;;8414753;28;19931;-75
2024/01/09 16:30:46;;;;;;;;;;;0.50;99.90;;;;;;8425391;28;19928;-75
2024/01/09 16:34:47;;;;;;;;;;;0.50;99.90;;;;;;8426681;28;19938;-75
2024/01/09 16:38:49;;;;;;;;;;;0.40;99.90;;;;;;8406952;28;20407;-75
2024/01/09 16:42:51;;;;;;;;;;;0.30;99.90;;;;;;8397696;28;19928;-75
2024/01/09 16:46:53;;;;;;;;;;;0.30;99.90;;;;;;8425941;28;19931;-75
2024/01/09 16:50:55;;;;;;;;;;;0.20;99.90;;;;;;8426340;28;19924;-75
2024/01/09 16:54:57;;;;;;;;;;;0.10;99.90;;;;;;8421885;28;19977;-75
2024/01/09 16:58:59;;;;;;;;;;;0.00;99.90;;;;;;8418010;28;20391;-76
2024/01/09 17:03:00;;;;;;;;;;;-0.10;99.90;;;;;;8409979;28;19924;-75
2024/01/09 17:07:02;;;;;;;;;;;-0.10;99.90;;;;;;8428748;28;19927;-75
2024/01/09 17:11:04;;;;;;;;;;;-0.10;99.90;;;;;;8423765;28;19954;-75
2024/01/09 17:15:06;;;;;;;;;;;-0.10;99.90;;;;;;8425618;28;19935;-75
2024/01/09 17:19:07;;;;;;;;;;;-0.20;99.90;;;;;;8417626;28;20053;-75
2024/01/09 17:23:09;;;;;;;;;;;-0.20;99.90;;;;;;8422524;28;19923;-75
2024/01/09 17:27:11;;;;;;;;;;;-0.20;99.90;;;;;;8422450;28;19934;-75
2024/01/09 17:31:13;;;;;;;;;;;-0.30;99.90;;;;;;8415943;28;19928;-75
2024/01/09 17:35:15;;;;;;;;;;;-0.30;99.90;;;;;;8422492;28;19978;-75
2024/01/09 17:39:18;;;;;;;;;;;-0.40;99.90;;;;;;8438442;28;19931;-75
2024/01/09 17:43:19;;;;;;;;;;;-0.40;99.90;;;;;;8428369;28;19932;-75
2024/01/09 17:47:21;;;;;;;;;;;-0.50;99.90;;;;;;8412435;28;19928;-75
2024/01/09 17:51:23;;;;;;;;;;;-0.60;99.90;;;;;;8415974;28;19935;-75
2024/01/09 17:55:25;;;;;;;;;;;-0.60;99.90;;;;;;8435326;28;19943;-75
2024/01/09 17:59:27;;;;;;;;;;;-0.60;99.90;;;;;;8429137;28;19938;-75
2024/01/09 18:03:29;;;;;;;;;;;-0.60;99.90;;;;;;8411593;28;20455;-75
2024/01/09 18:07:30;;;;;;;;;;;-0.70;99.90;;;;;;8431430;28;20546;-75
2024/01/09 18:11:34;;;;;;;;;;;-0.80;99.90;;;;;;8426029;28;19931;-75
2024/01/09 18:15:36;;;;;;;;;;;-0.80;99.90;;;;;;8428677;28;20382;-75
2024/01/09 18:19:37;;;;;;;;;;;-0.80;99.90;;;;;;8430107;28;19923;-75
2024/01/09 18:23:39;;;;;;;;;;;-0.90;99.90;;;;;;8429965;28;20299;-75
2024/01/09 18:27:41;;;;;;;;;;;-0.80;99.90;;;;;;8430379;28;19939;-75
2024/01/09 18:31:45;;;;;;;;;;;-0.90;99.90;;;;;;8433744;28;19928;-75
2024/01/09 18:35:47;;;;;;;;;;;-0.90;99.90;;;;;;8433872;28;19932;-75
2024/01/09 18:39:49;;;;;;;;;;;-0.90;99.90;;;;;;8425330;28;19985;-75
2024/01/09 18:43:51;;;;;;;;;;;-1.00;99.90;;;;;;8425308;28;20868;-75
2024/01/09 18:47:54;;;;;;;;;;;-1.00;99.90;;;;;;8424704;28;19925;-74
2024/01/09 18:51:55;;;;;;;;;;;-1.00;99.90;;;;;;8424688;28;19997;-75
2024/01/09 18:55:57;;;;;;;;;;;-1.00;99.90;;;;;;8401734;28;19931;-75
2024/01/09 18:59:59;;;;;;;;;;;-1.10;99.90;;;;;;8424040;28;19938;-75
2024/01/09 19:04:00;;;;;;;;;;;-1.10;99.90;;;;;;8417572;28;19932;-75
2024/01/09 19:08:02;;;;;;;;;;;-1.10;99.90;;;;;;8422082;28;19981;-75
2024/01/09 19:12:04;;;;;;;;;;;-1.10;99.90;;;;;;8429298;28;19931;-75
2024/01/09 19:16:08;;;;;;;;;;;-1.20;99.90;;;;;;8428709;28;19932;-75
2024/01/09 19:20:12;;;;;;;;;;;-1.30;99.90;;;;;;8427582;28;19931;-75
2024/01/09 19:24:18;;;;;;;;;;;-1.30;99.90;;;;;;8428977;28;19923;-75
2024/01/09 19:28:20;;;;;;;;;;;-1.30;99.90;;;;;;8421382;28;19931;-75
2024/01/09 19:32:24;;;;;;;;;;;-1.30;99.90;;;;;;8426458;28;19928;-75
2024/01/09 19:36:26;;;;;;;;;;;-1.30;99.90;;;;;;8424276;28;19924;-75
2024/01/09 19:40:28;;;;;;;;;;;-1.40;99.90;;;;;;8428804;28;19969;-75
2024/01/09 19:44:30;;;;;;;;;;;-1.40;99.90;;;;;;8425049;28;19942;-76
2024/01/09 19:48:32;;;;;;;;;;;-1.40;99.90;;;;;;8430045;28;19932;-75
2024/01/09 19:52:34;;;;;;;;;;;-1.40;99.90;;;;;;8429202;28;19931;-75
2024/01/09 19:56:36;;;;;;;;;;;-1.40;99.90;;;;;;8428204;28;19985;-75
2024/01/09 20:00:38;;;;;;;;;;;-1.40;99.90;;;;;;8411644;28;19963;-75
2024/01/09 20:04:39;;;;;;;;;;;-1.40;99.90;;;;;;8416423;28;20379;-75
2024/01/09 20:08:43;;;;;;;;;;;-1.50;99.90;;;;;;8416299;28;23617;-76
2024/01/09 20:12:45;;;;;;;;;;;-1.50;99.90;;;;;;8409128;28;19927;-75
2024/01/09 20:16:47;;;;;;;;;;;-1.50;99.90;;;;;;8428422;28;20030;-75
2024/01/09 20:20:49;;;;;;;;;;;-1.50;99.90;;;;;;8426847;28;19934;-75
2024/01/09 20:24:51;;;;;;;;;;;-1.50;99.90;;;;;;8401729;28;19924;-75
2024/01/09 20:28:53;;;;;;;;;;;-1.60;99.90;;;;;;8431663;28;20336;-75
2024/01/09 20:32:55;;;;;;;;;;;-1.60;99.90;;;;;;8416737;28;19923;-75
2024/01/09 20:36:57;;;;;;;;;;;-1.60;99.90;;;;;;8430665;28;19970;-75
2024/01/09 20:40:59;;;;;;;;;;;-1.60;99.90;;;;;;8408183;28;20362;-75
2024/01/09 20:45:01;;;;;;;;;;;-1.70;99.90;;;;;;8417564;28;20542;-75
2024/01/09 20:49:03;;;;;;;;;;;-1.70;99.90;;;;;;8407744;28;20311;-75
2024/01/09 20:53:04;;;;;;;;;;;-1.80;99.90;;;;;;8426728;28;19958;-75
2024/01/09 20:57:06;;;;;;;;;;;-1.80;99.90;;;;;;8409166;28;19932;-75
2024/01/09 21:01:08;;;;;;;;;;;-1.80;99.90;;;;;;8412431;28;19977;-75
2024/01/09 21:05:10;;;;;;;;;;;-1.80;99.90;;;;;;8412552;28;19971;-76
2024/01/09 21:09:12;;;;;;;;;;;-1.80;99.90;;;;;;8427638;28;20337;-75
2024/01/09 21:13:14;;;;;;;;;;;-1.80;99.90;;;;;;8415793;28;19924;-76
2024/01/09 21:17:16;;;;;;;;;;;-1.90;99.90;;;;;;8426875;28;19977;-75
2024/01/09 21:21:19;;;;;;;;;;;-1.90;99.90;;;;;;8430753;28;19978;-75
2024/01/09 21:25:21;;;;;;;;;;;-1.90;99.90;;;;;;8422803;28;19924;-75
2024/01/09 21:29:23;;;;;;;;;;;-1.90;99.90;;;;;;8409416;28;19932;-75
2024/01/09 21:33:29;;;;;;;;;;;-1.90;99.90;;;;;;8427118;28;19928;-75
2024/01/09 21:37:31;;;;;;;;;;;-1.90;99.90;;;;;;8426854;28;20017;-75
2024/01/09 21:41:32;;;;;;;;;;;-2.00;99.90;;;;;;8423886;28;19949;-75
2024/01/09 21:45:37;;;;;;;;;;;-2.00;99.90;;;;;;8423938;28;19924;-75
2024/01/09 21:49:39;;;;;;;;;;;-2.10;99.90;;;;;;8411348;28;19931;-75
2024/01/09 21:53:41;;;;;;;;;;;-2.10;99.90;;;;;;8422474;28;19959;-75
2024/01/09 21:57:43;;;;;;;;;;;-2.20;99.90;;;;;;8426890;28;19940;-75
2024/01/09 22:01:44;;;;;;;;;;;-2.20;99.90;;;;;;8417438;28;19935;-75
2024/01/09 22:05:46;;;;;;;;;;;-2.20;99.90;;;;;;8418888;28;20257;-75
2024/01/09 22:09:48;;;;;;;;;;;-2.20;99.90;;;;;;8442154;28;20307;-75
2024/01/09 22:13:49;;;;;;;;;;;-2.20;99.90;;;;;;8417376;28;19924;-75
2024/01/09 22:17:51;;;;;;;;;;;-2.20;99.90;;;;;;8417184;28;19931;-75
2024/01/09 22:31:59;;;;;;;;;;;-2.20;99.90;;;;;;8441911;28;19958;-75
2024/01/09 22:36:01;;;;;;;;;;;-2.20;99.90;;;;;;8444289;28;19930;-75
2024/01/09 22:40:03;;;;;;;;;;;-2.20;99.90;;;;;;8434822;28;19936;-75
2024/01/09 22:44:05;;;;;;;;;;;-2.20;99.90;;;;;;8424777;28;19931;-75
2024/01/09 22:48:07;;;;;;;;;;;-2.20;99.90;;;;;;8420142;28;19928;-74
2024/01/09 22:52:09;;;;;;;;;;;-2.20;99.90;;;;;;8428842;28;20379;-74
2024/01/09 22:56:10;;;;;;;;;;;-2.20;99.90;;;;;;8434559;28;19924;-75
2024/01/09 23:00:26;;;;;;;;;;;-2.30;99.90;;;;;;8434126;28;20268;-75
2024/01/09 23:04:28;;;;;;;;;;;-2.30;99.90;;;;;;8443268;28;19928;-75
2024/01/09 23:08:30;;;;;;;;;;;-2.30;99.90;;;;;;8427109;28;19924;-75
2024/01/09 23:12:31;;;;;;;;;;;-2.40;99.90;;;;;;8437543;28;19923;-75
2024/01/09 23:16:34;;;;;;;;;;;-2.30;99.90;;;;;;8437943;28;19934;-75
2024/01/09 23:20:36;;;;;;;;;;;-2.40;99.90;;;;;;8435036;28;20306;-75
2024/01/09 23:24:37;;;;;;;;;;;-2.40;99.90;;;;;;8438421;28;19931;-74
2024/01/09 23:28:39;;;;;;;;;;;-2.40;99.90;;;;;;8441866;28;19924;-75
2024/01/09 23:32:41;;;;;;;;;;;-2.40;99.90;;;;;;8438424;28;20022;-74
2024/01/09 23:36:44;;;;;;;;;;;-2.50;99.90;;;;;;8439272;28;19932;-74
2024/01/09 23:40:46;;;;;;;;;;;-2.50;99.90;;;;;;8420416;28;19931;-74
2024/01/09 23:44:47;;;;;;;;;;;-2.50;99.90;;;;;;8416828;28;19928;-75
2024/01/09 23:48:49;;;;;;;;;;;-2.50;99.90;;;;;;8414898;28;19928;-75
2024/01/09 23:52:51;;;;;;;;;;;-2.50;99.90;;;;;;8433791;28;20008;-74